createdAt,value
2023-02-17T00:00:27.870Z,972.69
2023-02-17T00:01:27.817Z,972.75
2023-02-17T00:02:27.858Z,972.67
2023-02-17T00:03:27.711Z,972.68
2023-02-17T00:04:27.651Z,972.67
2023-02-17T00:05:27.596Z,972.62
2023-02-17T00:06:27.523Z,972.67
2023-02-17T00:07:27.460Z,972.71
2023-02-17T00:08:27.408Z,972.70
2023-02-17T00:09:27.338Z,972.67
2023-02-17T00:10:27.311Z,972.65
2023-02-17T00:11:27.228Z,972.63
2023-02-17T00:12:27.189Z,972.65
2023-02-17T00:13:27.113Z,972.70
2023-02-17T00:14:27.051Z,972.65
2023-02-17T00:15:27.028Z,972.58
2023-02-17T00:16:26.964Z,972.62
2023-02-17T00:17:26.890Z,972.55
2023-02-17T00:18:26.824Z,972.58
2023-02-17T00:19:26.774Z,972.54
2023-02-17T00:20:26.721Z,972.56
2023-02-17T00:21:26.696Z,972.45
2023-02-17T00:22:26.608Z,972.42
2023-02-17T00:23:26.546Z,972.43
2023-02-17T00:24:26.504Z,972.42
2023-02-17T00:25:26.423Z,972.41
2023-02-17T00:26:26.394Z,972.36
2023-02-17T00:27:26.316Z,972.37
2023-02-17T00:28:26.264Z,972.42
2023-02-17T00:29:26.211Z,972.40
2023-02-17T00:30:26.170Z,972.35
2023-02-17T00:31:26.183Z,972.39
2023-02-17T00:32:26.048Z,972.38
2023-02-17T00:33:25.972Z,972.38
2023-02-17T00:34:25.931Z,972.40
2023-02-17T00:35:25.874Z,972.40
2023-02-17T00:36:25.819Z,972.39
2023-02-17T00:37:25.748Z,972.36
2023-02-17T00:38:25.684Z,972.42
2023-02-17T00:39:25.639Z,972.41
2023-02-17T00:40:25.572Z,972.47
2023-02-17T00:41:25.530Z,972.50
2023-02-17T00:42:25.467Z,972.38
2023-02-17T00:43:25.398Z,972.46
2023-02-17T00:44:25.351Z,972.41
2023-02-17T00:45:25.296Z,972.44
2023-02-17T00:46:25.275Z,972.45
2023-02-17T00:47:25.207Z,972.39
2023-02-17T00:48:25.143Z,972.48
2023-02-17T00:49:25.091Z,972.42
2023-02-17T00:50:25.010Z,972.42
2023-02-17T00:51:24.943Z,972.44
2023-02-17T00:52:24.892Z,972.46
2023-02-17T00:53:24.840Z,972.43
2023-02-17T00:54:24.807Z,972.42
2023-02-17T00:55:24.721Z,972.38
2023-02-17T00:56:24.658Z,972.39
2023-02-17T00:57:24.603Z,972.36
2023-02-17T00:58:24.552Z,972.42
2023-02-17T00:59:24.503Z,972.35
2023-02-17T01:00:24.442Z,972.36
2023-02-17T01:01:24.464Z,972.37
2023-02-17T01:02:24.331Z,972.33
2023-02-17T01:03:24.267Z,972.33
2023-02-17T01:04:24.291Z,972.36
2023-02-17T01:05:24.148Z,972.36
2023-02-17T01:06:24.084Z,972.37
2023-02-17T01:07:24.032Z,972.38
2023-02-17T01:08:23.981Z,972.41
2023-02-17T01:09:23.928Z,972.38
2023-02-17T01:10:23.869Z,972.36
2023-02-17T01:11:23.805Z,972.35
2023-02-17T01:12:23.752Z,972.31
2023-02-17T01:13:23.688Z,972.35
2023-02-17T01:14:23.661Z,972.32
2023-02-17T01:15:23.576Z,972.37
2023-02-17T01:16:23.549Z,972.31
2023-02-17T01:17:23.461Z,972.29
2023-02-17T01:18:23.428Z,972.28
2023-02-17T01:19:23.346Z,972.30
2023-02-17T01:20:23.319Z,972.29
2023-02-17T01:21:23.231Z,972.28
2023-02-17T01:22:23.174Z,972.34
2023-02-17T01:23:23.129Z,972.24
2023-02-17T01:24:23.066Z,972.26
2023-02-17T01:25:23.012Z,972.27
2023-02-17T01:26:22.965Z,972.30
2023-02-17T01:27:22.898Z,972.31
2023-02-17T01:28:22.852Z,972.25
2023-02-17T01:29:22.779Z,972.27
2023-02-17T01:30:22.768Z,972.20
2023-02-17T01:31:22.839Z,972.22
2023-02-17T01:32:22.613Z,972.22
2023-02-17T01:33:22.577Z,972.24
2023-02-17T01:34:22.503Z,972.29
2023-02-17T01:35:22.442Z,972.26
2023-02-17T01:36:22.377Z,972.21
2023-02-17T01:37:22.324Z,972.22
2023-02-17T01:38:22.281Z,972.19
2023-02-17T01:39:22.212Z,972.15
2023-02-17T01:40:22.167Z,972.16
2023-02-17T01:41:22.092Z,972.15
2023-02-17T01:42:22.039Z,972.12
2023-02-17T01:43:21.970Z,972.16
2023-02-17T01:44:21.965Z,972.14
2023-02-17T01:45:21.872Z,972.12
2023-02-17T01:46:21.865Z,972.21
2023-02-17T01:47:21.758Z,972.15
2023-02-17T01:48:21.683Z,972.19
2023-02-17T01:49:21.636Z,972.15
2023-02-17T01:50:21.586Z,972.16
2023-02-17T01:51:21.513Z,972.22
2023-02-17T01:52:21.453Z,972.21
2023-02-17T01:53:21.424Z,972.20
2023-02-17T01:54:21.352Z,972.15
2023-02-17T01:55:21.283Z,972.18
2023-02-17T01:56:21.238Z,972.20
2023-02-17T01:57:21.183Z,972.12
2023-02-17T01:58:21.119Z,972.16
2023-02-17T01:59:21.063Z,972.12
2023-02-17T02:00:20.994Z,972.09
2023-02-17T02:01:20.944Z,972.06
2023-02-17T02:02:20.994Z,972.01
2023-02-17T02:03:20.826Z,972.00
2023-02-17T02:04:20.774Z,971.99
2023-02-17T02:05:20.711Z,971.99
2023-02-17T02:06:20.664Z,972.01
2023-02-17T02:07:20.612Z,971.92
2023-02-17T02:08:20.582Z,971.93
2023-02-17T02:09:20.486Z,971.90
2023-02-17T02:10:20.436Z,971.94
2023-02-17T02:11:20.368Z,971.91
2023-02-17T02:12:20.335Z,971.95
2023-02-17T02:13:20.264Z,971.88
2023-02-17T02:14:20.211Z,971.82
2023-02-17T02:15:20.143Z,971.85
2023-02-17T02:16:20.129Z,971.86
2023-02-17T02:17:20.051Z,971.81
2023-02-17T02:18:19.997Z,971.73
2023-02-17T02:19:19.918Z,971.69
2023-02-17T02:20:19.867Z,971.69
2023-02-17T02:21:19.831Z,971.71
2023-02-17T02:22:19.752Z,971.61
2023-02-17T02:23:19.711Z,971.63
2023-02-17T02:24:19.639Z,971.66
2023-02-17T02:25:19.575Z,971.58
2023-02-17T02:26:19.522Z,971.56
2023-02-17T02:27:19.461Z,971.54
2023-02-17T02:28:19.418Z,971.51
2023-02-17T02:29:19.362Z,971.51
2023-02-17T02:30:19.345Z,971.49
2023-02-17T02:31:19.303Z,971.50
2023-02-17T02:32:19.182Z,971.47
2023-02-17T02:33:19.134Z,971.45
2023-02-17T02:34:19.062Z,971.49
2023-02-17T02:35:19.005Z,971.44
2023-02-17T02:36:18.958Z,971.46
2023-02-17T02:37:18.895Z,971.48
2023-02-17T02:38:18.848Z,971.41
2023-02-17T02:39:18.780Z,971.36
2023-02-17T02:40:18.730Z,971.33
2023-02-17T02:41:18.667Z,971.41
2023-02-17T02:42:18.621Z,971.37
2023-02-17T02:43:18.564Z,971.35
2023-02-17T02:44:18.495Z,971.35
2023-02-17T02:45:18.435Z,971.33
2023-02-17T02:46:18.382Z,971.27
2023-02-17T02:47:18.342Z,971.30
2023-02-17T02:48:18.263Z,971.33
2023-02-17T02:49:18.216Z,971.28
2023-02-17T02:50:18.163Z,971.32
2023-02-17T02:51:18.101Z,971.24
2023-02-17T02:52:18.054Z,971.26
2023-02-17T02:53:17.991Z,971.27
2023-02-17T02:54:17.922Z,971.25
2023-02-17T02:55:17.867Z,971.20
2023-02-17T02:56:17.815Z,971.20
2023-02-17T02:57:17.767Z,971.18
2023-02-17T02:58:17.708Z,971.21
2023-02-17T02:59:17.639Z,971.17
2023-02-17T03:00:17.585Z,971.18
2023-02-17T03:01:17.526Z,971.17
2023-02-17T03:02:17.477Z,971.13
2023-02-17T03:03:17.425Z,971.10
2023-02-17T03:04:17.392Z,971.09
2023-02-17T03:05:17.320Z,971.12
2023-02-17T03:06:17.245Z,971.14
2023-02-17T03:07:17.182Z,971.11
2023-02-17T03:08:17.143Z,971.10
2023-02-17T03:09:17.070Z,971.17
2023-02-17T03:10:17.011Z,971.07
2023-02-17T03:11:16.962Z,971.10
2023-02-17T03:12:16.898Z,971.09
2023-02-17T03:13:16.871Z,971.09
2023-02-17T03:14:16.800Z,971.10
2023-02-17T03:15:16.744Z,971.07
2023-02-17T03:16:16.702Z,971.09
2023-02-17T03:17:16.611Z,971.09
2023-02-17T03:18:16.562Z,971.05
2023-02-17T03:19:16.521Z,971.05
2023-02-17T03:20:16.440Z,971.16
2023-02-17T03:21:16.397Z,971.03
2023-02-17T03:22:16.329Z,971.09
2023-02-17T03:23:16.283Z,971.04
2023-02-17T03:24:16.231Z,971.07
2023-02-17T03:25:16.157Z,970.99
2023-02-17T03:26:16.098Z,970.95
2023-02-17T03:27:16.064Z,970.97
2023-02-17T03:28:16.019Z,970.96
2023-02-17T03:29:15.942Z,970.97
2023-02-17T03:30:15.948Z,970.94
2023-02-17T03:31:15.828Z,970.94
2023-02-17T03:32:15.785Z,970.98
2023-02-17T03:33:15.711Z,970.98
2023-02-17T03:34:15.658Z,970.91
2023-02-17T03:35:15.588Z,970.91
2023-02-17T03:36:15.530Z,970.91
2023-02-17T03:37:15.482Z,970.89
2023-02-17T03:38:15.425Z,971.06
2023-02-17T03:39:15.372Z,970.98
2023-02-17T03:40:15.301Z,971.00
2023-02-17T03:41:15.269Z,971.00
2023-02-17T03:42:15.194Z,971.06
2023-02-17T03:43:17.579Z,971.01
2023-02-17T03:44:15.076Z,971.02
2023-02-17T03:45:15.024Z,970.95
2023-02-17T03:46:14.993Z,970.95
2023-02-17T03:47:14.902Z,970.94
2023-02-17T03:48:14.870Z,970.97
2023-02-17T03:49:14.789Z,970.99
2023-02-17T03:50:14.749Z,971.00
2023-02-17T03:51:14.687Z,970.98
2023-02-17T03:52:14.622Z,971.02
2023-02-17T03:53:14.585Z,970.96
2023-02-17T03:54:14.512Z,970.93
2023-02-17T03:55:14.466Z,970.93
2023-02-17T03:56:14.390Z,970.94
2023-02-17T03:57:14.341Z,970.97
2023-02-17T03:58:14.286Z,971.01
2023-02-17T03:59:14.218Z,971.00
2023-02-17T04:00:14.183Z,971.03
2023-02-17T04:01:14.162Z,970.99
2023-02-17T04:02:14.055Z,971.05
2023-02-17T04:03:13.998Z,971.03
2023-02-17T04:04:13.998Z,971.06
2023-02-17T04:05:13.883Z,971.03
2023-02-17T04:06:13.841Z,971.07
2023-02-17T04:07:13.763Z,971.05
2023-02-17T04:08:13.729Z,971.06
2023-02-17T04:09:13.656Z,971.04
2023-02-17T04:10:13.598Z,971.05
2023-02-17T04:11:13.561Z,971.05
2023-02-17T04:12:13.491Z,971.03
2023-02-17T04:13:13.429Z,971.07
2023-02-17T04:14:13.370Z,971.01
2023-02-17T04:15:13.322Z,971.00
2023-02-17T04:16:13.258Z,970.96
2023-02-17T04:17:13.197Z,970.98
2023-02-17T04:18:13.137Z,970.95
2023-02-17T04:19:13.080Z,970.91
2023-02-17T04:20:13.026Z,970.95
2023-02-17T04:21:12.989Z,970.90
2023-02-17T04:22:12.921Z,970.95
2023-02-17T04:23:12.848Z,970.98
2023-02-17T04:24:12.793Z,970.97
2023-02-17T04:25:12.749Z,970.94
2023-02-17T04:26:12.711Z,970.97
2023-02-17T04:27:12.631Z,970.85
2023-02-17T04:28:12.613Z,970.93
2023-02-17T04:29:12.508Z,970.95
2023-02-17T04:30:12.611Z,970.99
2023-02-17T04:31:12.509Z,970.96
2023-02-17T04:32:12.403Z,970.94
2023-02-17T04:33:12.281Z,971.03
2023-02-17T04:34:12.230Z,970.96
2023-02-17T04:35:12.177Z,971.03
2023-02-17T04:36:12.126Z,971.00
2023-02-17T04:37:12.061Z,971.01
2023-02-17T04:38:11.999Z,971.04
2023-02-17T04:39:11.947Z,971.04
2023-02-17T04:40:11.881Z,971.07
2023-02-17T04:41:11.841Z,971.01
2023-02-17T04:42:11.792Z,971.08
2023-02-17T04:43:11.708Z,971.12
2023-02-17T04:44:11.670Z,970.93
2023-02-17T04:45:11.606Z,970.94
2023-02-17T04:46:11.582Z,970.89
2023-02-17T04:47:11.506Z,970.89
2023-02-17T04:48:11.428Z,970.89
2023-02-17T04:49:11.391Z,970.86
2023-02-17T04:50:11.322Z,970.85
2023-02-17T04:51:11.290Z,970.84
2023-02-17T04:52:11.205Z,970.82
2023-02-17T04:53:11.142Z,970.84
2023-02-17T04:54:11.108Z,970.83
2023-02-17T04:55:11.039Z,970.83
2023-02-17T04:56:10.973Z,970.83
2023-02-17T04:57:10.913Z,970.84
2023-02-17T04:58:10.860Z,970.84
2023-02-17T04:59:10.798Z,970.83
2023-02-17T05:00:10.764Z,970.82
2023-02-17T05:01:10.718Z,970.83
2023-02-17T05:02:10.636Z,970.82
2023-02-17T05:03:10.584Z,970.85
2023-02-17T05:04:10.529Z,970.85
2023-02-17T05:05:10.493Z,970.81
2023-02-17T05:06:10.410Z,970.84
2023-02-17T05:07:10.368Z,970.76
2023-02-17T05:08:10.301Z,970.80
2023-02-17T05:09:10.238Z,970.82
2023-02-17T05:10:10.190Z,970.80
2023-02-17T05:11:10.129Z,970.79
2023-02-17T05:12:10.085Z,970.78
2023-02-17T05:13:10.011Z,970.81
2023-02-17T05:14:09.955Z,970.79
2023-02-17T05:15:09.896Z,970.77
2023-02-17T05:16:09.951Z,970.83
2023-02-17T05:17:09.776Z,970.80
2023-02-17T05:18:09.747Z,970.82
2023-02-17T05:19:09.677Z,970.78
2023-02-17T05:20:09.621Z,970.84
2023-02-17T05:21:09.561Z,970.76
2023-02-17T05:22:09.551Z,970.78
2023-02-17T05:23:09.461Z,970.76
2023-02-17T05:24:09.393Z,970.79
2023-02-17T05:25:09.325Z,970.67
2023-02-17T05:26:09.277Z,970.76
2023-02-17T05:27:09.232Z,970.78
2023-02-17T05:28:09.156Z,970.84
2023-02-17T05:29:09.102Z,970.83
2023-02-17T05:30:09.088Z,970.76
2023-02-17T05:31:09.110Z,970.75
2023-02-17T05:32:09.010Z,970.75
2023-02-17T05:33:08.865Z,970.75
2023-02-17T05:34:08.825Z,970.75
2023-02-17T05:35:08.766Z,970.63
2023-02-17T05:36:08.698Z,970.71
2023-02-17T05:37:08.655Z,970.69
2023-02-17T05:38:08.592Z,970.71
2023-02-17T05:39:08.540Z,970.74
2023-02-17T05:40:08.477Z,970.73
2023-02-17T05:41:08.426Z,970.76
2023-02-17T05:42:08.369Z,970.79
2023-02-17T05:43:08.305Z,970.75
2023-02-17T05:44:08.271Z,970.73
2023-02-17T05:45:08.203Z,970.70
2023-02-17T05:46:08.547Z,970.75
2023-02-17T05:47:08.075Z,970.75
2023-02-17T05:48:08.035Z,970.78
2023-02-17T05:49:07.982Z,970.79
2023-02-17T05:50:07.904Z,970.74
2023-02-17T05:51:07.863Z,970.77
2023-02-17T05:52:07.800Z,970.76
2023-02-17T05:53:07.736Z,970.71
2023-02-17T05:54:07.697Z,970.74
2023-02-17T05:55:07.618Z,970.78
2023-02-17T05:56:07.882Z,970.81
2023-02-17T05:57:07.554Z,970.81
2023-02-17T05:58:07.471Z,970.82
2023-02-17T05:59:07.407Z,970.83
2023-02-17T06:00:07.344Z,970.87
2023-02-17T06:01:07.310Z,970.92
2023-02-17T06:02:07.226Z,970.88
2023-02-17T06:03:07.178Z,970.96
2023-02-17T06:04:07.110Z,970.97
2023-02-17T06:05:07.148Z,970.94
2023-02-17T06:06:07.296Z,970.99
2023-02-17T06:07:06.972Z,971.01
2023-02-17T06:08:06.886Z,970.97
2023-02-17T06:09:06.838Z,971.06
2023-02-17T06:10:06.774Z,970.99
2023-02-17T06:11:06.753Z,970.94
2023-02-17T06:12:06.670Z,971.02
2023-02-17T06:13:06.611Z,970.96
2023-02-17T06:14:06.547Z,970.93
2023-02-17T06:15:06.497Z,970.95
2023-02-17T06:16:06.839Z,970.94
2023-02-17T06:17:06.390Z,970.89
2023-02-17T06:18:06.321Z,970.81
2023-02-17T06:19:06.273Z,970.86
2023-02-17T06:20:06.219Z,970.81
2023-02-17T06:21:06.177Z,970.87
2023-02-17T06:22:06.115Z,970.87
2023-02-17T06:23:06.056Z,970.82
2023-02-17T06:24:06.007Z,970.80
2023-02-17T06:25:05.928Z,970.78
2023-02-17T06:26:06.163Z,970.83
2023-02-17T06:27:05.826Z,970.79
2023-02-17T06:28:05.756Z,970.76
2023-02-17T06:29:05.697Z,970.74
2023-02-17T06:30:05.676Z,970.72
2023-02-17T06:31:05.699Z,970.71
2023-02-17T06:32:05.566Z,970.67
2023-02-17T06:33:05.481Z,970.57
2023-02-17T06:34:06.652Z,970.55
2023-02-17T06:35:05.481Z,970.60
2023-02-17T06:36:05.663Z,970.59
2023-02-17T06:37:05.253Z,970.58
2023-02-17T06:38:05.274Z,970.52
2023-02-17T06:39:05.149Z,970.48
2023-02-17T06:40:05.084Z,970.50
2023-02-17T06:41:05.038Z,970.51
2023-02-17T06:42:04.968Z,970.49
2023-02-17T06:43:04.910Z,970.53
2023-02-17T06:44:04.868Z,970.44
2023-02-17T06:45:04.801Z,970.48
2023-02-17T06:46:05.148Z,970.58
2023-02-17T06:47:04.698Z,970.64
2023-02-17T06:48:04.634Z,970.64
2023-02-17T06:49:04.574Z,970.60
2023-02-17T06:50:04.517Z,970.66
2023-02-17T06:51:04.476Z,970.73
2023-02-17T06:52:04.416Z,970.80
2023-02-17T06:53:04.346Z,970.83
2023-02-17T06:54:04.288Z,970.80
2023-02-17T06:55:04.232Z,970.88
2023-02-17T06:56:04.656Z,970.84
2023-02-17T06:57:04.110Z,970.88
2023-02-17T06:58:04.060Z,970.87
2023-02-17T06:59:04.002Z,970.85
2023-02-17T07:00:03.954Z,970.93
2023-02-17T07:01:03.892Z,970.96
2023-02-17T07:02:03.975Z,970.91
2023-02-17T07:03:03.945Z,971.03
2023-02-17T07:04:03.729Z,971.09
2023-02-17T07:05:03.683Z,971.05
2023-02-17T07:06:03.753Z,971.09
2023-02-17T07:07:03.558Z,971.05
2023-02-17T07:08:03.510Z,971.08
2023-02-17T07:09:03.447Z,971.07
2023-02-17T07:10:03.431Z,971.14
2023-02-17T07:11:03.330Z,970.99
2023-02-17T07:12:03.277Z,971.08
2023-02-17T07:13:03.229Z,971.06
2023-02-17T07:14:03.165Z,971.08
2023-02-17T07:15:03.110Z,971.13
2023-02-17T07:16:03.108Z,971.17
2023-02-17T07:17:03.017Z,971.12
2023-02-17T07:18:02.979Z,971.07
2023-02-17T07:19:02.876Z,970.99
2023-02-17T07:20:02.821Z,971.08
2023-02-17T07:21:02.766Z,971.09
2023-02-17T07:22:02.728Z,971.05
2023-02-17T07:23:02.660Z,971.00
2023-02-17T07:24:02.610Z,971.02
2023-02-17T07:25:02.559Z,970.95
2023-02-17T07:26:02.494Z,970.97
2023-02-17T07:27:02.443Z,970.97
2023-02-17T07:28:02.379Z,970.98
2023-02-17T07:29:02.338Z,971.09
2023-02-17T07:30:02.326Z,970.97
2023-02-17T07:31:02.244Z,971.00
2023-02-17T07:32:02.207Z,970.88
2023-02-17T07:33:02.111Z,971.08
2023-02-17T07:34:02.042Z,971.02
2023-02-17T07:35:01.985Z,971.06
2023-02-17T07:36:01.942Z,971.08
2023-02-17T07:37:01.879Z,971.09
2023-02-17T07:38:01.840Z,971.12
2023-02-17T07:39:01.760Z,971.07
2023-02-17T07:40:01.709Z,971.15
2023-02-17T07:41:01.650Z,971.10
2023-02-17T07:42:01.624Z,971.11
2023-02-17T07:43:01.532Z,971.12
2023-02-17T07:44:01.477Z,971.03
2023-02-17T07:45:01.422Z,971.06
2023-02-17T07:46:01.395Z,971.01
2023-02-17T07:47:01.313Z,971.05
2023-02-17T07:48:01.261Z,971.11
2023-02-17T07:49:01.203Z,971.08
2023-02-17T07:50:01.135Z,971.16
2023-02-17T07:51:01.075Z,971.09
2023-02-17T07:52:02.068Z,971.22
2023-02-17T07:53:00.981Z,971.24
2023-02-17T07:54:00.914Z,971.24
2023-02-17T07:55:00.854Z,971.16
2023-02-17T07:56:00.816Z,971.17
2023-02-17T07:57:00.732Z,971.13
2023-02-17T07:58:00.680Z,971.22
2023-02-17T07:59:00.629Z,971.15
2023-02-17T08:00:00.593Z,971.09
2023-02-17T08:01:00.512Z,971.03
2023-02-17T08:02:00.481Z,971.04
2023-02-17T08:03:00.410Z,971.11
2023-02-17T08:04:00.380Z,971.08
2023-02-17T08:05:00.283Z,971.17
2023-02-17T08:06:00.231Z,971.21
2023-02-17T08:07:00.192Z,971.22
2023-02-17T08:08:00.118Z,971.15
2023-02-17T08:09:00.082Z,971.17
2023-02-17T08:10:00.008Z,971.08
2023-02-17T08:10:59.946Z,971.14
2023-02-17T08:11:59.898Z,971.14
2023-02-17T08:12:59.851Z,971.11
2023-02-17T08:13:59.787Z,971.14
2023-02-17T08:14:59.721Z,971.13
2023-02-17T08:15:59.688Z,971.10
2023-02-17T08:16:59.676Z,970.99
2023-02-17T08:17:59.594Z,970.97
2023-02-17T08:18:59.500Z,970.97
2023-02-17T08:20:05.899Z,970.90
2023-02-17T08:20:59.413Z,970.96
2023-02-17T08:21:59.352Z,971.01
2023-02-17T08:22:59.274Z,971.06
2023-02-17T08:23:59.230Z,971.10
2023-02-17T08:24:59.180Z,971.12
2023-02-17T08:25:59.113Z,971.09
2023-02-17T08:26:59.068Z,971.10
2023-02-17T08:27:59.010Z,971.13
2023-02-17T08:28:58.951Z,971.07
2023-02-17T08:29:58.928Z,971.09
2023-02-17T08:30:58.939Z,971.13
2023-02-17T08:31:58.930Z,971.15
2023-02-17T08:32:58.737Z,971.24
2023-02-17T08:33:58.684Z,971.18
2023-02-17T08:34:58.622Z,971.16
2023-02-17T08:35:58.582Z,971.07
2023-02-17T08:36:58.505Z,971.15
2023-02-17T08:37:58.459Z,971.25
2023-02-17T08:38:58.417Z,971.19
2023-02-17T08:39:58.337Z,971.15
2023-02-17T08:40:58.277Z,971.20
2023-02-17T08:41:58.231Z,971.23
2023-02-17T08:42:58.165Z,971.20
2023-02-17T08:43:58.123Z,971.19
2023-02-17T08:44:58.092Z,971.21
2023-02-17T08:45:57.998Z,971.11
2023-02-17T08:46:57.947Z,971.04
2023-02-17T08:47:57.924Z,971.09
2023-02-17T08:48:57.836Z,971.00
2023-02-17T08:49:57.814Z,971.07
2023-02-17T08:50:57.733Z,971.00
2023-02-17T08:51:57.670Z,971.09
2023-02-17T08:52:57.614Z,971.12
2023-02-17T08:53:57.585Z,970.97
2023-02-17T08:54:57.504Z,970.90
2023-02-17T08:55:57.433Z,970.93
2023-02-17T08:56:57.432Z,970.99
2023-02-17T08:57:57.363Z,970.92
2023-02-17T08:58:57.304Z,970.97
2023-02-17T08:59:57.214Z,970.95
2023-02-17T09:00:57.155Z,971.01
2023-02-17T09:01:57.153Z,970.95
2023-02-17T09:02:57.163Z,970.93
2023-02-17T09:03:57.008Z,970.98
2023-02-17T09:04:57.020Z,971.13
2023-02-17T09:05:56.890Z,971.02
2023-02-17T09:06:56.977Z,970.98
2023-02-17T09:07:56.828Z,971.06
2023-02-17T09:08:56.707Z,970.92
2023-02-17T09:09:56.643Z,970.97
2023-02-17T09:10:56.628Z,970.99
2023-02-17T09:11:56.528Z,970.99
2023-02-17T09:12:56.509Z,971.05
2023-02-17T09:13:56.426Z,971.03
2023-02-17T09:14:56.390Z,971.06
2023-02-17T09:15:56.386Z,971.11
2023-02-17T09:16:56.270Z,970.98
2023-02-17T09:17:56.276Z,970.86
2023-02-17T09:18:56.143Z,970.83
2023-02-17T09:19:56.086Z,970.78
2023-02-17T09:20:56.036Z,970.78
2023-02-17T09:21:56.034Z,970.89
2023-02-17T09:22:55.935Z,970.82
2023-02-17T09:23:55.878Z,971.00
2023-02-17T09:24:55.830Z,970.97
2023-02-17T09:25:55.765Z,970.86
2023-02-17T09:26:55.731Z,970.79
2023-02-17T09:27:55.742Z,970.84
2023-02-17T09:28:55.589Z,970.81
2023-02-17T09:29:55.613Z,970.84
2023-02-17T09:30:55.572Z,970.85
2023-02-17T09:31:55.586Z,970.90
2023-02-17T09:32:55.453Z,970.83
2023-02-17T09:33:55.491Z,970.93
2023-02-17T09:34:55.315Z,970.81
2023-02-17T09:35:55.196Z,970.80
2023-02-17T09:36:55.133Z,970.84
2023-02-17T09:37:55.076Z,970.89
2023-02-17T09:38:55.091Z,970.98
2023-02-17T09:39:54.977Z,970.89
2023-02-17T09:40:54.921Z,970.91
2023-02-17T09:41:54.921Z,970.88
2023-02-17T09:42:54.933Z,970.99
2023-02-17T09:43:54.768Z,970.87
2023-02-17T09:44:54.754Z,970.94
2023-02-17T09:45:54.665Z,970.87
2023-02-17T09:47:01.631Z,970.83
2023-02-17T09:47:54.532Z,970.86
2023-02-17T09:48:54.502Z,970.76
2023-02-17T09:49:54.413Z,970.87
2023-02-17T09:50:54.356Z,970.79
2023-02-17T09:51:54.317Z,970.87
2023-02-17T09:52:54.309Z,970.85
2023-02-17T09:53:54.240Z,970.87
2023-02-17T09:54:54.143Z,970.89
2023-02-17T09:55:54.067Z,970.94
2023-02-17T09:56:54.036Z,970.93
2023-02-17T09:57:53.955Z,970.90
2023-02-17T09:58:53.928Z,970.84
2023-02-17T09:59:53.912Z,970.82
2023-02-17T10:00:53.807Z,970.81
2023-02-17T10:01:53.734Z,970.84
2023-02-17T10:02:53.673Z,970.87
2023-02-17T10:03:53.668Z,970.88
2023-02-17T10:04:53.607Z,970.96
2023-02-17T10:05:53.548Z,970.95
2023-02-17T10:06:53.534Z,970.84
2023-02-17T10:07:53.392Z,970.79
2023-02-17T10:08:53.377Z,970.86
2023-02-17T10:09:53.311Z,970.84
2023-02-17T10:10:53.288Z,970.86
2023-02-17T10:11:53.217Z,970.85
2023-02-17T10:12:53.119Z,970.90
2023-02-17T10:13:53.067Z,970.90
2023-02-17T10:14:53.073Z,970.89
2023-02-17T10:15:53.019Z,970.77
2023-02-17T10:16:52.987Z,970.84
2023-02-17T10:17:52.882Z,970.84
2023-02-17T10:18:52.794Z,970.89
2023-02-17T10:19:52.811Z,970.85
2023-02-17T10:20:52.753Z,970.84
2023-02-17T10:21:52.665Z,970.96
2023-02-17T10:22:52.670Z,970.91
2023-02-17T10:23:52.501Z,970.97
2023-02-17T10:24:52.458Z,970.91
2023-02-17T10:25:52.405Z,970.93
2023-02-17T10:26:52.333Z,970.99
2023-02-17T10:27:52.364Z,970.94
2023-02-17T10:28:52.340Z,970.90
2023-02-17T10:29:52.190Z,970.90
2023-02-17T10:30:52.255Z,970.94
2023-02-17T10:31:52.235Z,970.95
2023-02-17T10:32:52.057Z,971.03
2023-02-17T10:33:52.025Z,970.85
2023-02-17T10:34:51.904Z,970.94
2023-02-17T10:35:51.847Z,971.00
2023-02-17T10:36:51.811Z,970.97
2023-02-17T10:37:51.728Z,971.04
2023-02-17T10:38:51.666Z,971.04
2023-02-17T10:39:51.621Z,971.00
2023-02-17T10:40:51.557Z,971.02
2023-02-17T10:41:51.519Z,970.97
2023-02-17T10:42:51.450Z,971.02
2023-02-17T10:43:51.393Z,971.14
2023-02-17T10:44:51.450Z,971.03
2023-02-17T10:45:51.333Z,971.10
2023-02-17T10:46:51.278Z,971.08
2023-02-17T10:47:51.173Z,971.17
2023-02-17T10:48:51.134Z,971.09
2023-02-17T10:49:51.078Z,970.97
2023-02-17T10:50:51.010Z,970.99
2023-02-17T10:51:50.955Z,971.07
2023-02-17T10:52:51.049Z,971.00
2023-02-17T10:53:50.831Z,971.14
2023-02-17T10:54:50.774Z,971.02
2023-02-17T10:55:50.721Z,971.00
2023-02-17T10:56:50.674Z,971.07
2023-02-17T10:57:50.634Z,971.06
2023-02-17T10:58:50.553Z,971.12
2023-02-17T10:59:50.508Z,971.09
2023-02-17T11:00:50.486Z,971.13
2023-02-17T11:01:50.410Z,971.18
2023-02-17T11:02:50.436Z,971.05
2023-02-17T11:03:50.315Z,971.07
2023-02-17T11:04:50.237Z,971.06
2023-02-17T11:05:50.166Z,971.05
2023-02-17T11:06:50.124Z,970.97
2023-02-17T11:07:50.067Z,970.85
2023-02-17T11:08:49.997Z,970.99
2023-02-17T11:09:49.969Z,971.00
2023-02-17T11:10:49.891Z,971.03
2023-02-17T11:11:49.855Z,971.13
2023-02-17T11:12:49.805Z,970.90
2023-02-17T11:13:49.749Z,970.93
2023-02-17T11:14:49.673Z,970.94
2023-02-17T11:15:49.638Z,970.89
2023-02-17T11:16:49.558Z,970.89
2023-02-17T11:17:49.508Z,970.78
2023-02-17T11:18:49.453Z,970.82
2023-02-17T11:19:49.388Z,970.84
2023-02-17T11:20:49.378Z,970.82
2023-02-17T11:21:49.300Z,970.82
2023-02-17T11:22:49.713Z,970.77
2023-02-17T11:23:49.165Z,970.80
2023-02-17T11:24:49.118Z,970.91
2023-02-17T11:25:49.080Z,970.83
2023-02-17T11:26:49.002Z,970.75
2023-02-17T11:27:48.942Z,970.72
2023-02-17T11:28:48.895Z,970.72
2023-02-17T11:29:48.850Z,970.78
2023-02-17T11:30:48.784Z,970.74
2023-02-17T11:31:48.781Z,970.76
2023-02-17T11:32:48.670Z,970.68
2023-02-17T11:33:48.615Z,970.70
2023-02-17T11:34:48.556Z,970.66
2023-02-17T11:35:48.522Z,970.70
2023-02-17T11:36:48.454Z,970.69
2023-02-17T11:37:48.395Z,970.72
2023-02-17T11:38:48.369Z,970.71
2023-02-17T11:39:48.300Z,970.76
2023-02-17T11:40:48.243Z,970.70
2023-02-17T11:41:48.167Z,970.54
2023-02-17T11:42:48.114Z,970.70
2023-02-17T11:43:48.085Z,970.78
2023-02-17T11:44:48.011Z,970.77
2023-02-17T11:45:47.994Z,970.83
2023-02-17T11:46:47.903Z,970.77
2023-02-17T11:47:47.849Z,970.68
2023-02-17T11:48:47.805Z,970.74
2023-02-17T11:49:47.725Z,970.86
2023-02-17T11:50:47.674Z,970.81
2023-02-17T11:51:47.611Z,970.86
2023-02-17T11:52:47.610Z,970.71
2023-02-17T11:53:47.510Z,970.78
2023-02-17T11:54:47.453Z,970.73
2023-02-17T11:55:47.387Z,970.76
2023-02-17T11:56:47.357Z,970.72
2023-02-17T11:57:47.292Z,970.67
2023-02-17T11:58:47.222Z,970.66
2023-02-17T11:59:47.169Z,970.76
2023-02-17T12:00:47.112Z,970.57
2023-02-17T12:01:47.061Z,970.67
2023-02-17T12:02:47.052Z,970.67
2023-02-17T12:03:46.952Z,970.64
2023-02-17T12:04:46.922Z,970.58
2023-02-17T12:05:46.831Z,970.62
2023-02-17T12:06:46.783Z,970.55
2023-02-17T12:07:46.738Z,970.55
2023-02-17T12:08:47.723Z,970.63
2023-02-17T12:09:46.636Z,970.61
2023-02-17T12:10:46.554Z,970.49
2023-02-17T12:11:46.497Z,970.56
2023-02-17T12:12:46.469Z,970.55
2023-02-17T12:13:46.395Z,970.44
2023-02-17T12:14:46.355Z,970.58
2023-02-17T12:15:46.285Z,970.54
2023-02-17T12:16:46.282Z,970.51
2023-02-17T12:17:46.179Z,970.59
2023-02-17T12:18:46.123Z,970.52
2023-02-17T12:19:46.075Z,970.57
2023-02-17T12:20:46.021Z,970.52
2023-02-17T12:21:45.951Z,970.43
2023-02-17T12:22:45.899Z,970.51
2023-02-17T12:23:45.856Z,970.40
2023-02-17T12:24:45.779Z,970.40
2023-02-17T12:25:45.734Z,970.39
2023-02-17T12:26:45.688Z,970.30
2023-02-17T12:27:45.614Z,970.36